createdAt,value
2023-02-24T00:02:05.682Z,7.21
2023-02-24T00:04:40.195Z,7.20
2023-02-24T00:07:11.029Z,7.22
2023-02-24T00:09:40.506Z,7.22
2023-02-24T00:12:13.417Z,7.20
2023-02-24T00:14:45.355Z,7.19
2023-02-24T00:17:17.212Z,7.19
2023-02-24T00:19:46.732Z,7.18
2023-02-24T00:22:15.260Z,7.17
2023-02-24T00:24:43.482Z,7.17
2023-02-24T00:27:12.428Z,7.17
2023-02-24T00:29:42.246Z,7.18
2023-02-24T00:32:13.833Z,7.17
2023-02-24T00:34:43.264Z,7.15
2023-02-24T00:37:12.287Z,7.12
2023-02-24T00:39:41.970Z,7.09
2023-02-24T00:42:12.588Z,7.05
2023-02-24T00:44:46.068Z,7.01
2023-02-24T00:47:17.644Z,6.99
2023-02-24T00:49:46.354Z,6.95
2023-02-24T00:52:19.091Z,6.94
2023-02-24T00:54:52.150Z,6.94
2023-02-24T00:57:21.909Z,6.94
2023-02-24T00:59:54.382Z,6.95
2023-02-24T01:02:22.617Z,6.95
2023-02-24T01:04:52.956Z,6.94
2023-02-24T01:07:21.964Z,6.92
2023-02-24T01:09:51.107Z,6.91
2023-02-24T01:12:22.231Z,6.90
2023-02-24T01:14:52.805Z,6.90
2023-02-24T01:17:22.348Z,6.89
2023-02-24T01:19:50.881Z,6.88
2023-02-24T01:22:21.238Z,6.88
2023-02-24T01:24:50.839Z,6.89
2023-02-24T01:27:19.645Z,6.90
2023-02-24T01:29:49.160Z,6.90
2023-02-24T01:32:22.232Z,6.91
2023-02-24T01:34:53.707Z,6.92
2023-02-24T01:37:24.265Z,6.92
2023-02-24T01:39:52.382Z,6.92
2023-02-24T01:42:22.569Z,6.92
2023-02-24T01:44:52.158Z,6.92
2023-02-24T01:47:22.304Z,6.93
2023-02-24T01:49:54.821Z,6.92
2023-02-24T01:52:43.511Z,6.91
2023-02-24T01:55:29.440Z,6.91
2023-02-24T01:58:01.163Z,6.90
2023-02-24T02:00:37.915Z,6.89
2023-02-24T02:03:30.735Z,6.88
2023-02-24T02:06:10.876Z,6.89
2023-02-24T02:08:42.019Z,6.89
2023-02-24T02:11:20.700Z,6.89
2023-02-24T02:13:53.289Z,6.89
2023-02-24T02:16:51.587Z,6.89
2023-02-24T02:19:41.770Z,6.87
2023-02-24T02:22:26.796Z,6.85
2023-02-24T02:25:28.795Z,6.83
2023-02-24T02:28:17.053Z,6.82
2023-02-24T02:31:13.002Z,6.81
2023-02-24T02:34:00.299Z,6.83
2023-02-24T02:36:52.777Z,6.84
2023-02-24T02:39:30.674Z,6.84
2023-02-24T02:42:05.172Z,6.84
2023-02-24T02:44:40.044Z,6.85
2023-02-24T02:47:35.916Z,6.85
2023-02-24T02:50:18.892Z,6.83
2023-02-24T02:52:57.940Z,6.83
2023-02-24T02:55:33.839Z,6.83
2023-02-24T02:58:09.255Z,6.80
2023-02-24T03:00:51.575Z,6.77
2023-02-24T03:03:21.164Z,6.76
2023-02-24T03:05:57.563Z,6.76
2023-02-24T03:08:31.081Z,6.74
2023-02-24T03:11:02.997Z,6.73
2023-02-24T03:13:36.937Z,6.71
2023-02-24T03:16:06.813Z,6.71
2023-02-24T03:18:45.454Z,6.71
2023-02-24T03:21:24.585Z,6.72
2023-02-24T03:23:53.947Z,6.73
2023-02-24T03:26:52.800Z,6.71
2023-02-24T03:30:01.694Z,6.69
2023-02-24T03:32:44.029Z,6.68
2023-02-24T03:35:38.052Z,6.69
2023-02-24T03:38:10.331Z,6.68
2023-02-24T03:40:39.884Z,6.69
2023-02-24T03:43:17.973Z,6.70
2023-02-24T03:45:46.891Z,6.72
2023-02-24T03:48:16.593Z,6.71
2023-02-24T03:50:46.800Z,6.70
2023-02-24T03:53:59.862Z,6.67
2023-02-24T03:56:40.826Z,6.67
2023-02-24T03:59:18.909Z,6.67
2023-02-24T04:01:51.937Z,6.67
2023-02-24T04:04:38.198Z,6.68
2023-02-24T04:07:26.917Z,6.67
2023-02-24T04:10:10.509Z,6.66
2023-02-24T04:12:39.563Z,6.66
2023-02-24T04:15:21.018Z,6.67
2023-02-24T04:18:07.365Z,6.68
2023-02-24T04:20:40.377Z,6.68
2023-02-24T04:23:16.870Z,6.68
2023-02-24T04:25:49.819Z,6.68
2023-02-24T04:28:23.027Z,6.67
2023-02-24T04:30:57.644Z,6.66
2023-02-24T04:33:26.563Z,6.67
2023-02-24T04:35:55.996Z,6.67
2023-02-24T04:38:25.414Z,6.67
2023-02-24T04:40:55.459Z,6.66
2023-02-24T04:43:23.706Z,6.66
2023-02-24T04:45:52.507Z,6.65
2023-02-24T04:48:20.793Z,6.64
2023-02-24T04:50:55.318Z,6.63
2023-02-24T04:53:27.241Z,6.63
2023-02-24T04:55:56.501Z,6.64
2023-02-24T04:58:29.542Z,6.63
2023-02-24T05:00:57.837Z,6.62
2023-02-24T05:03:30.178Z,6.62
2023-02-24T05:06:00.474Z,6.61
2023-02-24T05:08:30.742Z,6.61
2023-02-24T05:11:01.203Z,6.60
2023-02-24T05:13:32.028Z,6.59
2023-02-24T05:16:08.276Z,6.59
2023-02-24T05:18:38.784Z,6.58
2023-02-24T05:21:32.297Z,6.58
2023-02-24T05:24:11.698Z,6.58
2023-02-24T05:26:41.999Z,6.59
2023-02-24T05:29:12.563Z,6.58
2023-02-24T05:31:42.047Z,6.58
2023-02-24T05:34:16.324Z,6.59
2023-02-24T05:36:59.756Z,6.60
2023-02-24T05:39:30.293Z,6.60
2023-02-24T05:42:05.959Z,6.60
2023-02-24T05:44:35.807Z,6.59
2023-02-24T05:47:05.930Z,6.59
2023-02-24T05:49:35.411Z,6.60
2023-02-24T05:52:09.120Z,6.60
2023-02-24T05:54:42.789Z,6.60
2023-02-24T05:57:17.189Z,6.60
2023-02-24T05:59:46.070Z,6.60
2023-02-24T06:02:16.756Z,6.60
2023-02-24T06:04:54.275Z,6.60
2023-02-24T06:07:34.678Z,6.59
2023-02-24T06:10:07.346Z,6.60
2023-02-24T06:12:40.059Z,6.59
2023-02-24T06:15:08.762Z,6.59
2023-02-24T06:17:39.397Z,6.59
2023-02-24T06:20:15.817Z,6.60
2023-02-24T06:22:44.294Z,6.60
2023-02-24T06:25:12.578Z,6.60
2023-02-24T06:27:41.141Z,6.61
2023-02-24T06:30:10.607Z,6.62
2023-02-24T06:32:39.533Z,6.60
2023-02-24T06:35:08.974Z,6.61
2023-02-24T06:37:37.325Z,6.62
2023-02-24T06:40:15.994Z,6.63
2023-02-24T06:42:54.429Z,6.64
2023-02-24T06:45:24.606Z,6.63
2023-02-24T06:47:52.864Z,6.63
2023-02-24T06:50:22.006Z,6.64
2023-02-24T06:52:50.662Z,6.65
2023-02-24T06:55:28.532Z,6.65
2023-02-24T06:58:04.719Z,6.66
2023-02-24T07:00:41.219Z,6.66
2023-02-24T07:03:15.134Z,6.67
2023-02-24T07:05:50.511Z,6.69
2023-02-24T07:08:21.270Z,6.69
2023-02-24T07:10:56.068Z,6.70
2023-02-24T07:13:30.094Z,6.72
2023-02-24T07:16:07.293Z,6.73
2023-02-24T07:18:40.617Z,6.74
2023-02-24T07:21:12.918Z,6.75
2023-02-24T07:23:42.021Z,6.77
2023-02-24T07:26:13.455Z,6.79
2023-02-24T07:28:44.545Z,6.80
2023-02-24T07:31:17.387Z,6.82
2023-02-24T07:33:46.840Z,6.84
2023-02-24T07:36:23.431Z,6.84
2023-02-24T07:38:53.666Z,6.85
2023-02-24T07:41:23.781Z,6.86
2023-02-24T07:43:55.318Z,6.87
2023-02-24T07:46:28.078Z,6.88
2023-02-24T07:48:59.972Z,6.89
2023-02-24T07:51:29.908Z,6.90
2023-02-24T07:54:00.745Z,6.92
2023-02-24T07:56:31.283Z,6.94
2023-02-24T07:59:09.906Z,6.94
2023-02-24T08:01:42.040Z,6.93
2023-02-24T08:04:16.558Z,6.93
2023-02-24T08:06:48.066Z,6.92
2023-02-24T08:09:19.667Z,6.93
2023-02-24T08:11:53.925Z,6.93
2023-02-24T08:14:32.984Z,6.94
2023-02-24T08:17:05.681Z,6.95
2023-02-24T08:19:39.643Z,6.97
2023-02-24T08:22:19.911Z,7.00
2023-02-24T08:25:06.008Z,7.00
2023-02-24T08:27:39.207Z,7.01
2023-02-24T08:30:09.955Z,7.03
2023-02-24T08:32:45.236Z,7.04
2023-02-24T08:35:16.324Z,7.05
2023-02-24T08:37:47.841Z,7.06
2023-02-24T08:40:34.562Z,7.08
2023-02-24T08:43:17.681Z,7.10
2023-02-24T08:45:52.133Z,7.11
2023-02-24T08:48:31.194Z,7.13
2023-02-24T08:51:04.760Z,7.15
2023-02-24T08:53:33.676Z,7.17
2023-02-24T08:56:12.460Z,7.18
2023-02-24T08:58:49.580Z,7.20
2023-02-24T09:01:24.702Z,7.20
2023-02-24T09:03:58.984Z,7.21
2023-02-24T09:06:43.566Z,7.22
2023-02-24T09:09:18.932Z,7.24
2023-02-24T09:11:49.566Z,7.25
2023-02-24T09:14:28.950Z,7.27
2023-02-24T09:17:03.647Z,7.27
2023-02-24T09:19:40.929Z,7.30
2023-02-24T09:22:30.276Z,7.30
2023-02-24T09:25:21.501Z,7.33
2023-02-24T09:28:09.093Z,7.33
2023-02-24T09:30:51.714Z,7.34
2023-02-24T09:33:23.694Z,7.35
2023-02-24T09:36:10.895Z,7.36
2023-02-24T09:39:03.331Z,7.37
2023-02-24T09:41:59.099Z,7.38
2023-02-24T09:44:37.836Z,7.38
2023-02-24T09:47:40.012Z,7.39
2023-02-24T09:50:14.703Z,7.41
2023-02-24T09:52:43.288Z,7.41
2023-02-24T09:55:46.242Z,7.41
2023-02-24T09:58:43.711Z,7.42
2023-02-24T10:01:43.018Z,7.43
2023-02-24T10:04:53.993Z,7.43
2023-02-24T10:07:38.662Z,7.45
2023-02-24T10:10:30.521Z,7.47
2023-02-24T10:13:14.050Z,7.48
2023-02-24T10:15:58.372Z,7.48
2023-02-24T10:18:28.750Z,7.50
2023-02-24T10:21:15.754Z,7.51
2023-02-24T10:24:02.525Z,7.52
2023-02-24T10:26:59.639Z,7.53
2023-02-24T10:29:32.653Z,7.54
2023-02-24T10:32:24.339Z,7.54
2023-02-24T10:34:53.538Z,7.54
2023-02-24T10:37:29.210Z,7.56
2023-02-24T10:40:01.164Z,7.57
2023-02-24T10:42:33.665Z,7.59
2023-02-24T10:45:17.334Z,7.60
2023-02-24T10:47:58.046Z,7.61
2023-02-24T10:50:34.793Z,7.61
2023-02-24T10:53:34.136Z,7.63
2023-02-24T10:56:26.647Z,7.64
2023-02-24T10:59:25.576Z,7.65
2023-02-24T11:02:06.826Z,7.66
2023-02-24T11:04:58.065Z,7.68
2023-02-24T11:07:33.745Z,7.69
2023-02-24T11:10:26.280Z,7.69
2023-02-24T11:13:15.820Z,7.71
2023-02-24T11:16:12.273Z,7.72
2023-02-24T11:18:46.514Z,7.75
2023-02-24T11:21:17.629Z,7.76
2023-02-24T11:23:56.943Z,7.77
2023-02-24T11:26:45.558Z,7.79
2023-02-24T11:29:45.963Z,7.80
2023-02-24T11:32:39.782Z,7.83
2023-02-24T11:35:22.961Z,7.85
2023-02-24T11:38:16.196Z,7.88
2023-02-24T11:40:49.353Z,7.90
2023-02-24T11:43:27.031Z,7.93
2023-02-24T11:46:02.309Z,7.97
2023-02-24T11:48:36.325Z,8.00
2023-02-24T11:51:16.721Z,8.02
2023-02-24T11:53:53.999Z,8.05
2023-02-24T11:56:22.999Z,8.07
2023-02-24T11:59:11.361Z,8.10
2023-02-24T12:01:48.417Z,8.13
2023-02-24T12:04:32.701Z,8.16
2023-02-24T12:07:23.521Z,8.19
2023-02-24T12:10:16.158Z,8.21
2023-02-24T12:12:57.113Z,8.25
2023-02-24T12:15:55.485Z,8.28
2023-02-24T12:18:30.987Z,8.32
2023-02-24T12:21:03.152Z,8.34
2023-02-24T12:23:40.072Z,8.37
2023-02-24T12:26:28.929Z,8.39
2023-02-24T12:29:18.864Z,8.42
2023-02-24T12:32:30.536Z,8.44
2023-02-24T12:35:07.479Z,8.48
2023-02-24T12:37:59.390Z,8.52
2023-02-24T12:40:53.368Z,8.54
2023-02-24T12:43:50.226Z,8.58
2023-02-24T12:46:31.389Z,8.60
2023-02-24T12:49:19.642Z,8.64
2023-02-24T12:52:08.006Z,8.66
2023-02-24T12:54:46.436Z,8.70
2023-02-24T12:57:25.579Z,8.72
2023-02-24T12:59:57.044Z,8.75
2023-02-24T13:02:55.983Z,8.78
2023-02-24T13:05:51.897Z,8.81
2023-02-24T13:08:39.833Z,8.84
2023-02-24T13:11:16.648Z,8.88
2023-02-24T13:13:56.711Z,8.91
2023-02-24T13:16:34.727Z,8.93
2023-02-24T13:19:17.794Z,8.96
2023-02-24T13:22:17.128Z,8.98
2023-02-24T13:24:55.133Z,9.01
2023-02-24T13:27:25.623Z,9.04
2023-02-24T13:30:01.086Z,9.05
2023-02-24T13:32:42.710Z,9.08
2023-02-24T13:35:14.488Z,9.10
2023-02-24T13:37:46.180Z,9.12
2023-02-24T13:40:17.830Z,9.14
2023-02-24T13:43:00.852Z,9.16
2023-02-24T13:45:35.266Z,9.20
2023-02-24T13:48:30.170Z,9.22
2023-02-24T13:51:37.519Z,9.23
2023-02-24T13:54:36.286Z,9.23
2023-02-24T13:57:40.141Z,9.23
2023-02-24T14:00:22.835Z,9.25
2023-02-24T14:02:53.256Z,9.26
2023-02-24T14:05:36.039Z,9.27
2023-02-24T14:08:05.309Z,9.28
2023-02-24T14:10:37.014Z,9.30
2023-02-24T14:13:16.859Z,9.30
2023-02-24T14:15:47.757Z,9.30
2023-02-24T14:18:25.892Z,9.31
2023-02-24T14:20:56.501Z,9.32
2023-02-24T14:23:27.480Z,9.32
2023-02-24T14:26:00.537Z,9.33
2023-02-24T14:28:38.326Z,9.34
2023-02-24T14:31:12.782Z,9.35
2023-02-24T14:33:42.996Z,9.36
2023-02-24T14:36:21.898Z,9.37
2023-02-24T14:39:19.970Z,9.38
2023-02-24T14:41:50.685Z,9.38
2023-02-24T14:44:24.469Z,9.40
2023-02-24T14:47:00.243Z,9.41
2023-02-24T14:49:30.452Z,9.42
2023-02-24T14:52:07.546Z,9.43
2023-02-24T14:54:48.893Z,9.43
2023-02-24T14:57:25.486Z,9.43
2023-02-24T15:00:00.122Z,9.44
2023-02-24T15:02:33.727Z,9.46
2023-02-24T15:05:02.052Z,9.47
2023-02-24T15:07:33.772Z,9.49
2023-02-24T15:10:04.734Z,9.51
2023-02-24T15:12:46.567Z,9.52
2023-02-24T15:15:24.171Z,9.53
2023-02-24T15:18:12.402Z,9.55
2023-02-24T15:20:42.596Z,9.57
2023-02-24T15:23:27.632Z,9.59
2023-02-24T15:25:56.108Z,9.60
2023-02-24T15:28:31.703Z,9.61
2023-02-24T15:31:05.264Z,9.63
2023-02-24T15:33:40.929Z,9.63
2023-02-24T15:36:19.887Z,9.64
2023-02-24T15:38:53.046Z,9.65
2023-02-24T15:41:21.678Z,9.67
2023-02-24T15:43:56.232Z,9.68
2023-02-24T15:46:30.003Z,9.68
2023-02-24T15:49:03.153Z,9.69
2023-02-24T15:51:41.713Z,9.70
2023-02-24T15:54:36.373Z,9.71
2023-02-24T15:57:05.981Z,9.71
2023-02-24T15:59:34.922Z,9.70
2023-02-24T16:02:05.311Z,9.70
2023-02-24T16:04:34.573Z,9.70
2023-02-24T16:07:04.188Z,9.69
2023-02-24T16:09:37.297Z,9.70
2023-02-24T16:12:18.544Z,9.69
2023-02-24T16:14:56.022Z,9.69
2023-02-24T16:17:35.173Z,9.68
2023-02-24T16:20:08.641Z,9.65
2023-02-24T16:22:37.490Z,9.63
2023-02-24T16:25:06.622Z,9.60
2023-02-24T16:27:35.893Z,9.59
2023-02-24T16:30:04.381Z,9.58
2023-02-24T16:32:33.242Z,9.56
2023-02-24T16:35:02.698Z,9.54
2023-02-24T16:37:30.869Z,9.52
2023-02-24T16:39:59.668Z,9.51
2023-02-24T16:42:28.097Z,9.49
2023-02-24T16:44:57.654Z,9.47
2023-02-24T16:47:26.537Z,9.45
2023-02-24T16:49:58.489Z,9.42
2023-02-24T16:52:28.710Z,9.39
2023-02-24T16:54:56.946Z,9.36
2023-02-24T16:57:25.942Z,9.34
2023-02-24T16:59:54.679Z,9.30
2023-02-24T17:02:26.019Z,9.29
2023-02-24T17:04:54.385Z,9.26
2023-02-24T17:07:22.754Z,9.25
2023-02-24T17:09:51.077Z,9.24
2023-02-24T17:12:22.218Z,9.21
2023-02-24T17:14:50.775Z,9.19
2023-02-24T17:17:21.575Z,9.17
2023-02-24T17:19:49.824Z,9.16
2023-02-24T17:22:18.568Z,9.16
2023-02-24T17:24:46.725Z,9.17
2023-02-24T17:27:14.992Z,9.17
2023-02-24T17:29:43.505Z,9.15
2023-02-24T17:32:12.391Z,9.14
2023-02-24T17:34:41.552Z,9.14
2023-02-24T17:37:10.712Z,9.14
2023-02-24T17:39:39.281Z,9.12
2023-02-24T17:42:07.529Z,9.10
2023-02-24T17:44:36.223Z,9.09
2023-02-24T17:47:06.596Z,9.07
2023-02-24T17:49:35.604Z,9.06
2023-02-24T17:52:06.265Z,9.06
2023-02-24T17:54:34.688Z,9.04
2023-02-24T17:57:03.098Z,9.03
2023-02-24T17:59:31.657Z,9.03
2023-02-24T18:02:02.210Z,9.03
2023-02-24T18:04:32.060Z,9.03
2023-02-24T18:07:01.218Z,9.05
2023-02-24T18:09:29.927Z,9.05
2023-02-24T18:11:58.447Z,9.05
2023-02-24T18:14:26.635Z,9.03
2023-02-24T18:16:55.479Z,9.02
2023-02-24T18:19:24.169Z,9.01
2023-02-24T18:21:53.731Z,9.00
2023-02-24T18:24:22.986Z,9.00
2023-02-24T18:26:51.328Z,8.99
2023-02-24T18:29:19.758Z,8.99
2023-02-24T18:31:51.297Z,8.99
2023-02-24T18:34:20.024Z,8.98
2023-02-24T18:36:48.614Z,8.97
2023-02-24T18:39:18.274Z,8.96
2023-02-24T18:41:46.548Z,8.97
2023-02-24T18:44:14.743Z,8.98
2023-02-24T18:46:42.974Z,8.97
2023-02-24T18:49:12.853Z,8.96
2023-02-24T18:51:42.544Z,8.97
2023-02-24T18:54:11.747Z,8.97
2023-02-24T18:56:40.819Z,8.96
2023-02-24T18:59:09.336Z,8.95
2023-02-24T19:01:39.318Z,8.93
2023-02-24T19:04:08.802Z,8.92
2023-02-24T19:06:38.700Z,8.90
2023-02-24T19:09:10.911Z,8.88
2023-02-24T19:11:41.617Z,8.88
2023-02-24T19:14:13.590Z,8.86
2023-02-24T19:16:42.731Z,8.85
2023-02-24T19:19:16.677Z,8.85
2023-02-24T19:21:46.261Z,8.84
2023-02-24T19:24:16.548Z,8.82
2023-02-24T19:26:46.059Z,8.81
2023-02-24T19:29:14.658Z,8.79
2023-02-24T19:31:44.170Z,8.78
2023-02-24T19:34:15.356Z,8.76
2023-02-24T19:36:43.877Z,8.75
2023-02-24T19:39:15.379Z,8.72
2023-02-24T19:41:43.839Z,8.71
2023-02-24T19:44:12.772Z,8.70
2023-02-24T19:46:42.217Z,8.69
2023-02-24T19:49:10.570Z,8.68
2023-02-24T19:51:40.304Z,8.67
2023-02-24T19:54:13.905Z,8.65
2023-02-24T19:56:42.162Z,8.65
2023-02-24T19:59:11.411Z,8.65
2023-02-24T20:01:40.530Z,8.64
2023-02-24T20:04:09.547Z,8.63
2023-02-24T20:06:41.182Z,8.62
2023-02-24T20:09:15.715Z,8.61
2023-02-24T20:11:45.792Z,8.60
2023-02-24T20:14:16.926Z,8.59
2023-02-24T20:16:45.488Z,8.59
2023-02-24T20:19:15.283Z,8.58
2023-02-24T20:21:44.234Z,8.57
2023-02-24T20:24:15.586Z,8.55
2023-02-24T20:26:47.354Z,8.54
2023-02-24T20:29:16.976Z,8.53
2023-02-24T20:31:46.776Z,8.52
2023-02-24T20:34:16.779Z,8.50
2023-02-24T20:36:46.206Z,8.48
2023-02-24T20:39:14.574Z,8.47
2023-02-24T20:41:44.214Z,8.47
2023-02-24T20:44:12.939Z,8.45
2023-02-24T20:46:42.524Z,8.44
2023-02-24T20:49:14.948Z,8.44
2023-02-24T20:51:44.094Z,8.45
2023-02-24T20:54:13.865Z,8.44
2023-02-24T20:56:44.307Z,8.44
2023-02-24T20:59:19.610Z,8.42
2023-02-24T21:01:49.139Z,8.41
2023-02-24T21:04:20.461Z,8.40
2023-02-24T21:06:51.534Z,8.39
2023-02-24T21:09:19.872Z,8.37
2023-02-24T21:11:49.122Z,8.37
2023-02-24T21:14:18.285Z,8.38
2023-02-24T21:16:46.773Z,8.37
2023-02-24T21:19:15.376Z,8.36
2023-02-24T21:21:44.252Z,8.35
2023-02-24T21:24:12.622Z,8.34
2023-02-24T21:26:40.752Z,8.33
2023-02-24T21:29:09.256Z,8.34
2023-02-24T21:31:38.057Z,8.33
2023-02-24T21:34:06.503Z,8.34
2023-02-24T21:36:35.242Z,8.33
2023-02-24T21:39:06.749Z,8.33
2023-02-24T21:41:37.958Z,8.32
2023-02-24T21:44:06.864Z,8.30
2023-02-24T21:46:35.069Z,8.28
2023-02-24T21:49:03.582Z,8.28
2023-02-24T21:51:31.698Z,8.27
2023-02-24T21:54:01.055Z,8.26
2023-02-24T21:56:30.427Z,8.25
2023-02-24T21:59:01.985Z,8.25
2023-02-24T22:01:33.628Z,8.25
2023-02-24T22:04:06.606Z,8.25
2023-02-24T22:06:36.481Z,8.23
2023-02-24T22:09:07.696Z,8.22
2023-02-24T22:11:38.674Z,8.22
2023-02-24T22:14:09.183Z,8.22
2023-02-24T22:16:39.636Z,8.21
2023-02-24T22:19:07.983Z,8.21
2023-02-24T22:21:36.389Z,8.20
2023-02-24T22:24:05.450Z,8.20
2023-02-24T22:26:34.326Z,8.21
2023-02-24T22:29:02.531Z,8.22
2023-02-24T22:31:33.293Z,8.21
2023-02-24T22:34:01.607Z,8.22
2023-02-24T22:36:36.850Z,8.21
2023-02-24T22:39:08.359Z,8.21
2023-02-24T22:41:38.448Z,8.22
2023-02-24T22:44:07.188Z,8.21
2023-02-24T22:46:38.415Z,8.18
2023-02-24T22:49:07.352Z,8.17
2023-02-24T22:51:36.134Z,8.19
2023-02-24T22:54:06.548Z,8.19
2023-02-24T22:56:35.894Z,8.19
2023-02-24T22:59:05.569Z,8.20
2023-02-24T23:01:36.557Z,8.19
2023-02-24T23:04:07.574Z,8.20
2023-02-24T23:06:37.500Z,8.21
2023-02-24T23:09:06.995Z,8.21
2023-02-24T23:11:44.044Z,8.20
2023-02-24T23:14:14.185Z,8.20
2023-02-24T23:16:45.030Z,8.21
2023-02-24T23:19:17.648Z,8.20
2023-02-24T23:21:49.722Z,8.21
2023-02-24T23:24:19.784Z,8.21
2023-02-24T23:26:54.452Z,8.21
2023-02-24T23:29:24.316Z,8.21
2023-02-24T23:31:53.611Z,8.22
2023-02-24T23:34:23.121Z,8.23
2023-02-24T23:36:52.261Z,8.25
2023-02-24T23:39:24.407Z,8.24
2023-02-24T23:41:56.935Z,8.25
2023-02-24T23:44:26.153Z,8.24
2023-02-24T23:46:55.192Z,8.23
2023-02-24T23:49:23.428Z,8.22
2023-02-24T23:51:52.151Z,8.22
2023-02-24T23:54:20.676Z,8.21
2023-02-24T23:56:50.714Z,8.21
2023-02-24T23:59:18.923Z,8.21
